sensor_id;sensor_type;location;lat;lon;timestamp;P1;durP1;ratioP1;P2;durP2;ratioP2
41923;SDS011;27613;48.116;11.656;2023-01-19T00:01:37;8.52;;;6.00;;
41923;SDS011;27613;48.116;11.656;2023-01-19T00:04:03;11.82;;;6.68;;
41923;SDS011;27613;48.116;11.656;2023-01-19T00:06:29;12.50;;;7.47;;
41923;SDS011;27613;48.116;11.656;2023-01-19T00:08:55;11.68;;;6.82;;
41923;SDS011;27613;48.116;11.656;2023-01-19T00:11:20;12.68;;;7.60;;
41923;SDS011;27613;48.116;11.656;2023-01-19T00:13:46;10.80;;;7.38;;
41923;SDS011;27613;48.116;11.656;2023-01-19T00:16:15;12.48;;;7.97;;
41923;SDS011;27613;48.116;11.656;2023-01-19T00:18:42;13.27;;;7.25;;
41923;SDS011;27613;48.116;11.656;2023-01-19T00:21:08;15.25;;;7.75;;
41923;SDS011;27613;48.116;11.656;2023-01-19T00:23:34;12.73;;;8.07;;
41923;SDS011;27613;48.116;11.656;2023-01-19T00:25:59;18.38;;;8.63;;
41923;SDS011;27613;48.116;11.656;2023-01-19T00:28:25;11.07;;;7.97;;
41923;SDS011;27613;48.116;11.656;2023-01-19T00:30:50;12.52;;;8.32;;
41923;SDS011;27613;48.116;11.656;2023-01-19T00:33:16;11.75;;;8.35;;
41923;SDS011;27613;48.116;11.656;2023-01-19T00:35:42;13.02;;;7.53;;
41923;SDS011;27613;48.116;11.656;2023-01-19T00:38:07;12.20;;;8.00;;
41923;SDS011;27613;48.116;11.656;2023-01-19T00:40:34;11.48;;;7.78;;
41923;SDS011;27613;48.116;11.656;2023-01-19T00:42:59;10.70;;;7.38;;
41923;SDS011;27613;48.116;11.656;2023-01-19T00:45:25;9.60;;;6.43;;
41923;SDS011;27613;48.116;11.656;2023-01-19T00:47:50;11.73;;;6.32;;
41923;SDS011;27613;48.116;11.656;2023-01-19T00:50:20;18.05;;;6.32;;
41923;SDS011;27613;48.116;11.656;2023-01-19T00:52:51;10.13;;;6.57;;
41923;SDS011;27613;48.116;11.656;2023-01-19T00:55:17;8.88;;;6.30;;
41923;SDS011;27613;48.116;11.656;2023-01-19T00:57:43;9.00;;;6.00;;
41923;SDS011;27613;48.116;11.656;2023-01-19T01:00:10;9.05;;;6.30;;
41923;SDS011;27613;48.116;11.656;2023-01-19T01:02:37;13.77;;;7.28;;
41923;SDS011;27613;48.116;11.656;2023-01-19T01:05:04;8.80;;;6.28;;
41923;SDS011;27613;48.116;11.656;2023-01-19T01:07:30;7.68;;;5.45;;
41923;SDS011;27613;48.116;11.656;2023-01-19T01:10:12;9.30;;;6.07;;
41923;SDS011;27613;48.116;11.656;2023-01-19T01:12:40;9.80;;;6.90;;
41923;SDS011;27613;48.116;11.656;2023-01-19T01:15:07;13.00;;;7.53;;
41923;SDS011;27613;48.116;11.656;2023-01-19T01:17:34;9.80;;;6.57;;
41923;SDS011;27613;48.116;11.656;2023-01-19T01:19:59;12.63;;;7.45;;
41923;SDS011;27613;48.116;11.656;2023-01-19T01:22:25;13.35;;;7.15;;
41923;SDS011;27613;48.116;11.656;2023-01-19T01:24:51;12.70;;;7.88;;
41923;SDS011;27613;48.116;11.656;2023-01-19T01:27:16;9.95;;;7.10;;
41923;SDS011;27613;48.116;11.656;2023-01-19T01:29:42;9.82;;;6.18;;
41923;SDS011;27613;48.116;11.656;2023-01-19T01:32:10;12.90;;;6.43;;
41923;SDS011;27613;48.116;11.656;2023-01-19T01:34:39;11.15;;;6.40;;
41923;SDS011;27613;48.116;11.656;2023-01-19T01:37:05;10.55;;;6.95;;
41923;SDS011;27613;48.116;11.656;2023-01-19T01:39:34;10.23;;;6.63;;
41923;SDS011;27613;48.116;11.656;2023-01-19T01:42:00;10.27;;;6.70;;
41923;SDS011;27613;48.116;11.656;2023-01-19T01:47:31;14.18;;;7.35;;
41923;SDS011;27613;48.116;11.656;2023-01-19T01:52:35;10.18;;;6.80;;
41923;SDS011;27613;48.116;11.656;2023-01-19T01:55:06;10.82;;;6.85;;
41923;SDS011;27613;48.116;11.656;2023-01-19T01:57:34;10.88;;;7.90;;
41923;SDS011;27613;48.116;11.656;2023-01-19T02:00:03;9.48;;;7.53;;
41923;SDS011;27613;48.116;11.656;2023-01-19T02:02:29;10.07;;;7.50;;
41923;SDS011;27613;48.116;11.656;2023-01-19T02:08:08;12.50;;;6.80;;
41923;SDS011;27613;48.116;11.656;2023-01-19T02:10:57;12.32;;;7.53;;
41923;SDS011;27613;48.116;11.656;2023-01-19T02:13:42;13.75;;;8.20;;
41923;SDS011;27613;48.116;11.656;2023-01-19T02:16:09;13.27;;;8.07;;
41923;SDS011;27613;48.116;11.656;2023-01-19T02:18:37;15.70;;;9.35;;
41923;SDS011;27613;48.116;11.656;2023-01-19T02:23:45;11.02;;;7.38;;
41923;SDS011;27613;48.116;11.656;2023-01-19T02:26:12;10.13;;;6.75;;
41923;SDS011;27613;48.116;11.656;2023-01-19T02:28:42;12.38;;;7.10;;
41923;SDS011;27613;48.116;11.656;2023-01-19T02:31:14;13.27;;;6.55;;
41923;SDS011;27613;48.116;11.656;2023-01-19T02:33:40;13.40;;;7.80;;
41923;SDS011;27613;48.116;11.656;2023-01-19T02:36:06;9.68;;;6.47;;
41923;SDS011;27613;48.116;11.656;2023-01-19T02:38:34;8.68;;;6.38;;
41923;SDS011;27613;48.116;11.656;2023-01-19T02:41:00;8.60;;;6.18;;
41923;SDS011;27613;48.116;11.656;2023-01-19T02:43:29;10.18;;;6.53;;
41923;SDS011;27613;48.116;11.656;2023-01-19T02:45:56;8.27;;;6.00;;
41923;SDS011;27613;48.116;11.656;2023-01-19T02:48:21;11.73;;;6.82;;
41923;SDS011;27613;48.116;11.656;2023-01-19T02:50:48;10.75;;;6.53;;
41923;SDS011;27613;48.116;11.656;2023-01-19T03:01:19;9.48;;;5.38;;
41923;SDS011;27613;48.116;11.656;2023-01-19T03:04:03;11.13;;;5.32;;
41923;SDS011;27613;48.116;11.656;2023-01-19T03:06:43;8.85;;;5.00;;
41923;SDS011;27613;48.116;11.656;2023-01-19T03:09:31;10.05;;;4.72;;
41923;SDS011;27613;48.116;11.656;2023-01-19T03:12:08;7.20;;;4.43;;
41923;SDS011;27613;48.116;11.656;2023-01-19T03:14:45;6.82;;;4.07;;
41923;SDS011;27613;48.116;11.656;2023-01-19T03:17:12;6.03;;;4.40;;
41923;SDS011;27613;48.116;11.656;2023-01-19T03:19:42;7.65;;;4.32;;
41923;SDS011;27613;48.116;11.656;2023-01-19T03:22:12;6.60;;;4.32;;
41923;SDS011;27613;48.116;11.656;2023-01-19T03:24:43;4.70;;;3.42;;
41923;SDS011;27613;48.116;11.656;2023-01-19T03:27:16;8.30;;;4.20;;
41923;SDS011;27613;48.116;11.656;2023-01-19T03:29:51;12.23;;;4.45;;
41923;SDS011;27613;48.116;11.656;2023-01-19T03:32:22;5.70;;;4.07;;
41923;SDS011;27613;48.116;11.656;2023-01-19T03:34:54;6.88;;;4.40;;
41923;SDS011;27613;48.116;11.656;2023-01-19T03:37:23;8.90;;;4.70;;
41923;SDS011;27613;48.116;11.656;2023-01-19T03:39:51;6.10;;;4.13;;
41923;SDS011;27613;48.116;11.656;2023-01-19T03:42:16;7.88;;;5.07;;
41923;SDS011;27613;48.116;11.656;2023-01-19T03:44:42;7.97;;;4.20;;
41923;SDS011;27613;48.116;11.656;2023-01-19T03:47:10;8.13;;;5.47;;
41923;SDS011;27613;48.116;11.656;2023-01-19T03:49:38;10.68;;;5.78;;
41923;SDS011;27613;48.116;11.656;2023-01-19T03:52:07;9.65;;;4.90;;
41923;SDS011;27613;48.116;11.656;2023-01-19T03:54:32;8.40;;;4.90;;
41923;SDS011;27613;48.116;11.656;2023-01-19T03:56:58;6.78;;;4.50;;
41923;SDS011;27613;48.116;11.656;2023-01-19T03:59:24;8.30;;;4.93;;
41923;SDS011;27613;48.116;11.656;2023-01-19T04:01:49;7.03;;;4.88;;
41923;SDS011;27613;48.116;11.656;2023-01-19T04:04:15;13.23;;;5.78;;
41923;SDS011;27613;48.116;11.656;2023-01-19T04:06:41;8.93;;;5.72;;
41923;SDS011;27613;48.116;11.656;2023-01-19T04:09:07;8.77;;;5.90;;
41923;SDS011;27613;48.116;11.656;2023-01-19T04:11:33;10.52;;;5.93;;
41923;SDS011;27613;48.116;11.656;2023-01-19T04:13:58;7.53;;;5.70;;
41923;SDS011;27613;48.116;11.656;2023-01-19T04:16:24;11.27;;;7.18;;
41923;SDS011;27613;48.116;11.656;2023-01-19T04:18:49;13.32;;;6.40;;
41923;SDS011;27613;48.116;11.656;2023-01-19T04:21:16;10.38;;;6.22;;
41923;SDS011;27613;48.116;11.656;2023-01-19T04:23:42;13.93;;;6.90;;
41923;SDS011;27613;48.116;11.656;2023-01-19T04:26:09;14.88;;;7.18;;
41923;SDS011;27613;48.116;11.656;2023-01-19T04:28:35;8.43;;;6.40;;
41923;SDS011;27613;48.116;11.656;2023-01-19T04:31:01;9.77;;;6.75;;
41923;SDS011;27613;48.116;11.656;2023-01-19T04:33:27;10.20;;;6.45;;
41923;SDS011;27613;48.116;11.656;2023-01-19T04:35:53;12.50;;;7.03;;
41923;SDS011;27613;48.116;11.656;2023-01-19T04:38:20;9.95;;;6.30;;
41923;SDS011;27613;48.116;11.656;2023-01-19T04:40:47;9.98;;;7.18;;
41923;SDS011;27613;48.116;11.656;2023-01-19T04:43:14;14.77;;;6.80;;
41923;SDS011;27613;48.116;11.656;2023-01-19T04:45:39;10.13;;;6.95;;
41923;SDS011;27613;48.116;11.656;2023-01-19T04:48:05;11.18;;;7.90;;
41923;SDS011;27613;48.116;11.656;2023-01-19T04:50:30;12.27;;;8.15;;
41923;SDS011;27613;48.116;11.656;2023-01-19T04:52:56;17.30;;;7.47;;
41923;SDS011;27613;48.116;11.656;2023-01-19T04:55:22;10.57;;;7.82;;
41923;SDS011;27613;48.116;11.656;2023-01-19T04:57:48;9.57;;;7.55;;
41923;SDS011;27613;48.116;11.656;2023-01-19T05:00:13;14.30;;;7.78;;
41923;SDS011;27613;48.116;11.656;2023-01-19T05:02:39;13.02;;;8.40;;
41923;SDS011;27613;48.116;11.656;2023-01-19T05:05:08;12.60;;;8.15;;
41923;SDS011;27613;48.116;11.656;2023-01-19T05:07:33;12.63;;;8.40;;
41923;SDS011;27613;48.116;11.656;2023-01-19T05:09:59;10.45;;;7.45;;
41923;SDS011;27613;48.116;11.656;2023-01-19T05:12:24;13.65;;;8.50;;
41923;SDS011;27613;48.116;11.656;2023-01-19T05:14:50;11.77;;;8.68;;
41923;SDS011;27613;48.116;11.656;2023-01-19T05:17:15;11.40;;;8.20;;
41923;SDS011;27613;48.116;11.656;2023-01-19T05:19:41;11.48;;;9.20;;
41923;SDS011;27613;48.116;11.656;2023-01-19T05:22:07;11.85;;;8.40;;
41923;SDS011;27613;48.116;11.656;2023-01-19T05:24:32;15.05;;;8.95;;
41923;SDS011;27613;48.116;11.656;2023-01-19T05:26:59;14.32;;;9.50;;
41923;SDS011;27613;48.116;11.656;2023-01-19T05:29:25;12.93;;;8.90;;
41923;SDS011;27613;48.116;11.656;2023-01-19T05:31:51;13.98;;;8.75;;
41923;SDS011;27613;48.116;11.656;2023-01-19T05:34:16;14.93;;;9.50;;
41923;SDS011;27613;48.116;11.656;2023-01-19T05:36:42;11.77;;;8.77;;
41923;SDS011;27613;48.116;11.656;2023-01-19T05:39:07;15.15;;;9.68;;
41923;SDS011;27613;48.116;11.656;2023-01-19T05:41:33;17.65;;;10.82;;
41923;SDS011;27613;48.116;11.656;2023-01-19T05:43:59;16.63;;;9.18;;
41923;SDS011;27613;48.116;11.656;2023-01-19T05:46:25;13.63;;;9.73;;
41923;SDS011;27613;48.116;11.656;2023-01-19T05:48:50;13.98;;;10.18;;
41923;SDS011;27613;48.116;11.656;2023-01-19T05:51:16;12.57;;;9.02;;
41923;SDS011;27613;48.116;11.656;2023-01-19T05:53:41;13.63;;;9.40;;
41923;SDS011;27613;48.116;11.656;2023-01-19T05:56:08;16.45;;;10.38;;
41923;SDS011;27613;48.116;11.656;2023-01-19T05:58:34;17.63;;;10.88;;
41923;SDS011;27613;48.116;11.656;2023-01-19T06:01:04;20.90;;;11.30;;
41923;SDS011;27613;48.116;11.656;2023-01-19T06:03:31;19.65;;;10.43;;
41923;SDS011;27613;48.116;11.656;2023-01-19T06:05:57;18.58;;;10.20;;
41923;SDS011;27613;48.116;11.656;2023-01-19T06:08:23;15.98;;;10.10;;
41923;SDS011;27613;48.116;11.656;2023-01-19T06:10:49;17.27;;;9.95;;
41923;SDS011;27613;48.116;11.656;2023-01-19T06:13:15;18.92;;;10.43;;
41923;SDS011;27613;48.116;11.656;2023-01-19T06:15:41;21.27;;;11.75;;
41923;SDS011;27613;48.116;11.656;2023-01-19T06:18:07;20.67;;;11.68;;
41923;SDS011;27613;48.116;11.656;2023-01-19T06:20:33;19.35;;;12.07;;
41923;SDS011;27613;48.116;11.656;2023-01-19T06:22:59;16.52;;;10.93;;
41923;SDS011;27613;48.116;11.656;2023-01-19T06:25:25;26.90;;;11.05;;
41923;SDS011;27613;48.116;11.656;2023-01-19T06:27:50;15.50;;;10.82;;
41923;SDS011;27613;48.116;11.656;2023-01-19T06:30:16;15.50;;;10.32;;
41923;SDS011;27613;48.116;11.656;2023-01-19T06:32:42;18.10;;;10.00;;
41923;SDS011;27613;48.116;11.656;2023-01-19T06:35:08;16.35;;;10.50;;
41923;SDS011;27613;48.116;11.656;2023-01-19T06:37:34;15.48;;;11.15;;
41923;SDS011;27613;48.116;11.656;2023-01-19T06:40:00;17.83;;;11.18;;
41923;SDS011;27613;48.116;11.656;2023-01-19T06:42:26;20.17;;;11.05;;
41923;SDS011;27613;48.116;11.656;2023-01-19T06:44:51;16.05;;;10.00;;
41923;SDS011;27613;48.116;11.656;2023-01-19T06:47:17;17.83;;;10.50;;
41923;SDS011;27613;48.116;11.656;2023-01-19T06:49:42;17.05;;;11.35;;
41923;SDS011;27613;48.116;11.656;2023-01-19T06:52:09;16.45;;;10.80;;
41923;SDS011;27613;48.116;11.656;2023-01-19T06:54:35;15.52;;;11.20;;
41923;SDS011;27613;48.116;11.656;2023-01-19T06:57:01;17.67;;;11.32;;
41923;SDS011;27613;48.116;11.656;2023-01-19T06:59:27;17.35;;;11.02;;
41923;SDS011;27613;48.116;11.656;2023-01-19T07:01:53;14.93;;;10.60;;
41923;SDS011;27613;48.116;11.656;2023-01-19T07:04:20;16.50;;;10.52;;
41923;SDS011;27613;48.116;11.656;2023-01-19T07:06:46;18.33;;;10.73;;
41923;SDS011;27613;48.116;11.656;2023-01-19T07:09:11;18.73;;;12.35;;
41923;SDS011;27613;48.116;11.656;2023-01-19T07:11:37;15.32;;;10.25;;
41923;SDS011;27613;48.116;11.656;2023-01-19T07:14:03;16.65;;;11.88;;
41923;SDS011;27613;48.116;11.656;2023-01-19T07:16:28;21.08;;;11.68;;
41923;SDS011;27613;48.116;11.656;2023-01-19T07:18:54;13.77;;;10.05;;
41923;SDS011;27613;48.116;11.656;2023-01-19T07:21:20;19.73;;;11.30;;
41923;SDS011;27613;48.116;11.656;2023-01-19T07:23:52;18.40;;;9.82;;
41923;SDS011;27613;48.116;11.656;2023-01-19T07:26:18;12.93;;;9.48;;
41923;SDS011;27613;48.116;11.656;2023-01-19T07:28:45;15.13;;;10.93;;
41923;SDS011;27613;48.116;11.656;2023-01-19T07:31:11;16.27;;;9.77;;
41923;SDS011;27613;48.116;11.656;2023-01-19T07:33:36;14.60;;;10.23;;
41923;SDS011;27613;48.116;11.656;2023-01-19T07:36:02;13.07;;;8.48;;
41923;SDS011;27613;48.116;11.656;2023-01-19T07:38:28;12.77;;;9.52;;
41923;SDS011;27613;48.116;11.656;2023-01-19T07:41:00;13.70;;;9.18;;
41923;SDS011;27613;48.116;11.656;2023-01-19T07:43:29;14.52;;;9.57;;
41923;SDS011;27613;48.116;11.656;2023-01-19T07:45:56;18.73;;;10.68;;
41923;SDS011;27613;48.116;11.656;2023-01-19T07:48:23;16.02;;;10.68;;
41923;SDS011;27613;48.116;11.656;2023-01-19T07:50:49;13.35;;;9.38;;
41923;SDS011;27613;48.116;11.656;2023-01-19T07:53:14;10.98;;;8.45;;
41923;SDS011;27613;48.116;11.656;2023-01-19T07:55:40;13.68;;;8.95;;
41923;SDS011;27613;48.116;11.656;2023-01-19T07:58:06;15.30;;;10.13;;
41923;SDS011;27613;48.116;11.656;2023-01-19T08:00:35;14.85;;;10.07;;
41923;SDS011;27613;48.116;11.656;2023-01-19T08:03:03;18.15;;;9.65;;
41923;SDS011;27613;48.116;11.656;2023-01-19T08:05:29;16.13;;;8.65;;
41923;SDS011;27613;48.116;11.656;2023-01-19T08:07:56;12.88;;;8.32;;
41923;SDS011;27613;48.116;11.656;2023-01-19T08:10:23;10.93;;;8.15;;
41923;SDS011;27613;48.116;11.656;2023-01-19T08:12:51;9.75;;;7.40;;
41923;SDS011;27613;48.116;11.656;2023-01-19T08:15:17;11.77;;;8.30;;
41923;SDS011;27613;48.116;11.656;2023-01-19T08:17:43;20.92;;;8.27;;
41923;SDS011;27613;48.116;11.656;2023-01-19T08:20:09;12.32;;;7.32;;
41923;SDS011;27613;48.116;11.656;2023-01-19T08:22:36;16.95;;;8.45;;
41923;SDS011;27613;48.116;11.656;2023-01-19T08:25:01;13.02;;;7.75;;
41923;SDS011;27613;48.116;11.656;2023-01-19T08:27:27;9.68;;;7.05;;
41923;SDS011;27613;48.116;11.656;2023-01-19T08:29:54;9.23;;;6.95;;
41923;SDS011;27613;48.116;11.656;2023-01-19T08:32:20;10.63;;;6.88;;
41923;SDS011;27613;48.116;11.656;2023-01-19T08:34:45;12.25;;;7.03;;
41923;SDS011;27613;48.116;11.656;2023-01-19T08:37:11;12.95;;;8.38;;
41923;SDS011;27613;48.116;11.656;2023-01-19T08:39:36;18.50;;;10.23;;
41923;SDS011;27613;48.116;11.656;2023-01-19T08:42:02;21.65;;;15.40;;
41923;SDS011;27613;48.116;11.656;2023-01-19T08:44:28;29.05;;;19.90;;
41923;SDS011;27613;48.116;11.656;2023-01-19T08:46:53;18.73;;;10.50;;
41923;SDS011;27613;48.116;11.656;2023-01-19T08:49:19;13.80;;;8.95;;
41923;SDS011;27613;48.116;11.656;2023-01-19T08:51:44;13.13;;;7.95;;
41923;SDS011;27613;48.116;11.656;2023-01-19T08:54:11;14.52;;;6.85;;
41923;SDS011;27613;48.116;11.656;2023-01-19T08:56:37;11.07;;;7.70;;
41923;SDS011;27613;48.116;11.656;2023-01-19T08:59:02;11.57;;;8.07;;
41923;SDS011;27613;48.116;11.656;2023-01-19T09:01:28;14.15;;;7.18;;
41923;SDS011;27613;48.116;11.656;2023-01-19T09:03:53;9.35;;;6.32;;
41923;SDS011;27613;48.116;11.656;2023-01-19T09:06:19;8.45;;;6.45;;
41923;SDS011;27613;48.116;11.656;2023-01-19T09:08:45;14.00;;;7.43;;
41923;SDS011;27613;48.116;11.656;2023-01-19T09:11:12;10.45;;;6.95;;
41923;SDS011;27613;48.116;11.656;2023-01-19T09:13:39;7.80;;;5.38;;
41923;SDS011;27613;48.116;11.656;2023-01-19T09:16:05;10.02;;;6.35;;
41923;SDS011;27613;48.116;11.656;2023-01-19T09:18:32;8.30;;;6.18;;
41923;SDS011;27613;48.116;11.656;2023-01-19T09:20:59;8.13;;;6.10;;
41923;SDS011;27613;48.116;11.656;2023-01-19T09:23:25;8.85;;;5.80;;
41923;SDS011;27613;48.116;11.656;2023-01-19T09:26:01;8.88;;;6.07;;
41923;SDS011;27613;48.116;11.656;2023-01-19T09:28:28;8.35;;;5.55;;
41923;SDS011;27613;48.116;11.656;2023-01-19T09:30:54;7.78;;;5.82;;
41923;SDS011;27613;48.116;11.656;2023-01-19T09:33:20;8.23;;;6.07;;
41923;SDS011;27613;48.116;11.656;2023-01-19T09:35:47;10.43;;;6.10;;
41923;SDS011;27613;48.116;11.656;2023-01-19T09:38:13;8.55;;;6.53;;
41923;SDS011;27613;48.116;11.656;2023-01-19T09:40:41;10.98;;;5.75;;
41923;SDS011;27613;48.116;11.656;2023-01-19T09:43:12;6.60;;;5.10;;
41923;SDS011;27613;48.116;11.656;2023-01-19T09:45:58;8.32;;;5.50;;
41923;SDS011;27613;48.116;11.656;2023-01-19T09:48:34;11.70;;;6.38;;
41923;SDS011;27613;48.116;11.656;2023-01-19T09:51:11;7.88;;;4.90;;
41923;SDS011;27613;48.116;11.656;2023-01-19T09:56:16;8.90;;;5.50;;
41923;SDS011;27613;48.116;11.656;2023-01-19T09:58:44;8.02;;;5.82;;
41923;SDS011;27613;48.116;11.656;2023-01-19T10:04:31;8.90;;;5.22;;
41923;SDS011;27613;48.116;11.656;2023-01-19T10:06:51;7.07;;;5.10;;
41923;SDS011;27613;48.116;11.656;2023-01-19T10:12:43;7.50;;;5.95;;
41923;SDS011;27613;48.116;11.656;2023-01-19T10:17:47;7.13;;;5.38;;
41923;SDS011;27613;48.116;11.656;2023-01-19T10:20:18;10.43;;;5.82;;
41923;SDS011;27613;48.116;11.656;2023-01-19T10:22:59;10.57;;;6.78;;
41923;SDS011;27613;48.116;11.656;2023-01-19T10:25:27;9.00;;;6.03;;
41923;SDS011;27613;48.116;11.656;2023-01-19T10:27:53;11.02;;;6.43;;
41923;SDS011;27613;48.116;11.656;2023-01-19T10:30:23;10.80;;;5.35;;
41923;SDS011;27613;48.116;11.656;2023-01-19T10:32:52;10.30;;;5.40;;
41923;SDS011;27613;48.116;11.656;2023-01-19T10:35:20;7.55;;;4.93;;
41923;SDS011;27613;48.116;11.656;2023-01-19T10:37:50;6.50;;;4.32;;
41923;SDS011;27613;48.116;11.656;2023-01-19T10:40:33;6.80;;;4.78;;
41923;SDS011;27613;48.116;11.656;2023-01-19T10:46:02;7.35;;;4.53;;
41923;SDS011;27613;48.116;11.656;2023-01-19T10:48:39;7.45;;;4.65;;
41923;SDS011;27613;48.116;11.656;2023-01-19T10:51:06;7.47;;;4.90;;
41923;SDS011;27613;48.116;11.656;2023-01-19T10:53:33;5.65;;;3.88;;
41923;SDS011;27613;48.116;11.656;2023-01-19T10:56:13;8.18;;;3.72;;
41923;SDS011;27613;48.116;11.656;2023-01-19T11:05:23;7.05;;;4.28;;
41923;SDS011;27613;48.116;11.656;2023-01-19T11:07:50;4.97;;;3.67;;
41923;SDS011;27613;48.116;11.656;2023-01-19T11:12:42;7.00;;;4.00;;
41923;SDS011;27613;48.116;11.656;2023-01-19T11:15:14;11.23;;;3.90;;
41923;SDS011;27613;48.116;11.656;2023-01-19T11:17:44;5.25;;;3.90;;
41923;SDS011;27613;48.116;11.656;2023-01-19T11:20:21;8.27;;;3.80;;
41923;SDS011;27613;48.116;11.656;2023-01-19T11:25:44;6.72;;;4.10;;
41923;SDS011;27613;48.116;11.656;2023-01-19T11:28:16;5.63;;;3.55;;
41923;SDS011;27613;48.116;11.656;2023-01-19T11:30:57;6.70;;;4.43;;
41923;SDS011;27613;48.116;11.656;2023-01-19T11:33:25;12.63;;;5.38;;
41923;SDS011;27613;48.116;11.656;2023-01-19T11:36:03;6.88;;;4.72;;
41923;SDS011;27613;48.116;11.656;2023-01-19T11:38:30;5.43;;;4.03;;
41923;SDS011;27613;48.116;11.656;2023-01-19T11:41:03;8.85;;;5.30;;
41923;SDS011;27613;48.116;11.656;2023-01-19T11:43:30;10.00;;;4.45;;
41923;SDS011;27613;48.116;11.656;2023-01-19T11:45:56;7.93;;;5.50;;
41923;SDS011;27613;48.116;11.656;2023-01-19T11:48:28;10.32;;;5.15;;
41923;SDS011;27613;48.116;11.656;2023-01-19T11:51:01;6.05;;;3.83;;
41923;SDS011;27613;48.116;11.656;2023-01-19T11:53:33;6.18;;;3.72;;
41923;SDS011;27613;48.116;11.656;2023-01-19T11:58:32;6.13;;;3.17;;
41923;SDS011;27613;48.116;11.656;2023-01-19T12:01:05;4.72;;;2.80;;
41923;SDS011;27613;48.116;11.656;2023-01-19T12:06:29;3.70;;;2.53;;
41923;SDS011;27613;48.116;11.656;2023-01-19T12:09:00;3.28;;;2.00;;
41923;SDS011;27613;48.116;11.656;2023-01-19T12:11:34;3.05;;;1.80;;
41923;SDS011;27613;48.116;11.656;2023-01-19T12:14:06;4.35;;;1.98;;
41923;SDS011;27613;48.116;11.656;2023-01-19T12:16:54;4.18;;;2.17;;
41923;SDS011;27613;48.116;11.656;2023-01-19T12:19:25;5.35;;;2.47;;
41923;SDS011;27613;48.116;11.656;2023-01-19T12:21:59;5.60;;;3.00;;
41923;SDS011;27613;48.116;11.656;2023-01-19T12:24:28;5.07;;;3.53;;
41923;SDS011;27613;48.116;11.656;2023-01-19T12:27:04;5.43;;;2.97;;
41923;SDS011;27613;48.116;11.656;2023-01-19T12:29:38;4.03;;;2.80;;
41923;SDS011;27613;48.116;11.656;2023-01-19T12:37:26;3.75;;;2.15;;
41923;SDS011;27613;48.116;11.656;2023-01-19T12:39:54;6.07;;;2.60;;
41923;SDS011;27613;48.116;11.656;2023-01-19T12:42:21;5.68;;;2.33;;
41923;SDS011;27613;48.116;11.656;2023-01-19T12:44:48;4.65;;;2.30;;
41923;SDS011;27613;48.116;11.656;2023-01-19T12:47:18;3.92;;;2.28;;
41923;SDS011;27613;48.116;11.656;2023-01-19T12:49:47;8.30;;;2.70;;
41923;SDS011;27613;48.116;11.656;2023-01-19T12:52:20;5.30;;;3.05;;
41923;SDS011;27613;48.116;11.656;2023-01-19T12:54:59;4.47;;;2.67;;
41923;SDS011;27613;48.116;11.656;2023-01-19T12:57:32;6.00;;;2.88;;
41923;SDS011;27613;48.116;11.656;2023-01-19T13:00:26;5.15;;;2.97;;
41923;SDS011;27613;48.116;11.656;2023-01-19T13:03:04;4.80;;;2.80;;
41923;SDS011;27613;48.116;11.656;2023-01-19T13:05:52;20.77;;;2.80;;
41923;SDS011;27613;48.116;11.656;2023-01-19T13:08:23;5.25;;;3.10;;
41923;SDS011;27613;48.116;11.656;2023-01-19T13:13:25;4.13;;;2.38;;
41923;SDS011;27613;48.116;11.656;2023-01-19T13:15:53;2.95;;;2.10;;
41923;SDS011;27613;48.116;11.656;2023-01-19T13:18:21;3.80;;;2.17;;
41923;SDS011;27613;48.116;11.656;2023-01-19T13:20:59;5.75;;;3.78;;
41923;SDS011;27613;48.116;11.656;2023-01-19T13:23:40;4.35;;;2.92;;
41923;SDS011;27613;48.116;11.656;2023-01-19T13:26:17;3.97;;;2.78;;
41923;SDS011;27613;48.116;11.656;2023-01-19T13:28:49;4.07;;;2.67;;
41923;SDS011;27613;48.116;11.656;2023-01-19T13:31:20;5.55;;;3.13;;
41923;SDS011;27613;48.116;11.656;2023-01-19T13:33:51;5.55;;;2.97;;
41923;SDS011;27613;48.116;11.656;2023-01-19T13:36:26;3.80;;;2.40;;
41923;SDS011;27613;48.116;11.656;2023-01-19T13:38:55;5.65;;;2.92;;
41923;SDS011;27613;48.116;11.656;2023-01-19T13:41:25;3.90;;;2.28;;
41923;SDS011;27613;48.116;11.656;2023-01-19T13:43:58;5.28;;;2.40;;
41923;SDS011;27613;48.116;11.656;2023-01-19T13:46:26;4.93;;;2.53;;
41923;SDS011;27613;48.116;11.656;2023-01-19T13:48:53;4.10;;;2.50;;
41923;SDS011;27613;48.116;11.656;2023-01-19T13:51:21;4.30;;;3.13;;
41923;SDS011;27613;48.116;11.656;2023-01-19T13:53:54;4.97;;;2.50;;
41923;SDS011;27613;48.116;11.656;2023-01-19T13:56:25;6.80;;;2.72;;
41923;SDS011;27613;48.116;11.656;2023-01-19T13:58:56;6.90;;;3.67;;
41923;SDS011;27613;48.116;11.656;2023-01-19T14:01:23;4.80;;;2.65;;
41923;SDS011;27613;48.116;11.656;2023-01-19T14:03:49;9.07;;;3.83;;
41923;SDS011;27613;48.116;11.656;2023-01-19T14:06:20;5.18;;;3.30;;
41923;SDS011;27613;48.116;11.656;2023-01-19T14:09:04;5.07;;;3.08;;
41923;SDS011;27613;48.116;11.656;2023-01-19T14:11:36;4.78;;;2.80;;
41923;SDS011;27613;48.116;11.656;2023-01-19T14:14:02;6.18;;;2.97;;
41923;SDS011;27613;48.116;11.656;2023-01-19T14:16:28;8.32;;;3.30;;
41923;SDS011;27613;48.116;11.656;2023-01-19T14:19:00;4.93;;;2.97;;
41923;SDS011;27613;48.116;11.656;2023-01-19T14:21:36;5.50;;;3.15;;
41923;SDS011;27613;48.116;11.656;2023-01-19T14:26:46;5.65;;;3.35;;
41923;SDS011;27613;48.116;11.656;2023-01-19T14:34:41;4.68;;;2.60;;
41923;SDS011;27613;48.116;11.656;2023-01-19T14:37:19;9.18;;;4.05;;
41923;SDS011;27613;48.116;11.656;2023-01-19T14:39:46;5.50;;;3.47;;
41923;SDS011;27613;48.116;11.656;2023-01-19T14:42:36;6.55;;;3.50;;
41923;SDS011;27613;48.116;11.656;2023-01-19T14:45:27;5.72;;;3.25;;
41923;SDS011;27613;48.116;11.656;2023-01-19T14:48:05;5.82;;;3.30;;
41923;SDS011;27613;48.116;11.656;2023-01-19T14:50:42;8.10;;;4.30;;
41923;SDS011;27613;48.116;11.656;2023-01-19T14:53:15;5.07;;;3.50;;
41923;SDS011;27613;48.116;11.656;2023-01-19T14:55:49;5.28;;;3.35;;
41923;SDS011;27613;48.116;11.656;2023-01-19T14:58:18;4.57;;;3.22;;
41923;SDS011;27613;48.116;11.656;2023-01-19T15:00:48;7.38;;;3.03;;
41923;SDS011;27613;48.116;11.656;2023-01-19T15:03:14;4.13;;;2.83;;
41923;SDS011;27613;48.116;11.656;2023-01-19T15:05:44;5.47;;;2.83;;
41923;SDS011;27613;48.116;11.656;2023-01-19T15:08:14;4.90;;;3.05;;
41923;SDS011;27613;48.116;11.656;2023-01-19T15:10:42;8.32;;;3.03;;
41923;SDS011;27613;48.116;11.656;2023-01-19T15:13:16;3.22;;;2.30;;
41923;SDS011;27613;48.116;11.656;2023-01-19T15:15:44;5.75;;;2.78;;
41923;SDS011;27613;48.116;11.656;2023-01-19T15:18:12;2.83;;;1.70;;
41923;SDS011;27613;48.116;11.656;2023-01-19T15:20:40;3.13;;;1.77;;
41923;SDS011;27613;48.116;11.656;2023-01-19T15:23:07;3.95;;;2.13;;
41923;SDS011;27613;48.116;11.656;2023-01-19T15:25:34;4.93;;;2.05;;
41923;SDS011;27613;48.116;11.656;2023-01-19T15:28:00;3.40;;;2.05;;
41923;SDS011;27613;48.116;11.656;2023-01-19T15:30:26;3.00;;;2.00;;
41923;SDS011;27613;48.116;11.656;2023-01-19T15:32:57;6.47;;;2.80;;
41923;SDS011;27613;48.116;11.656;2023-01-19T15:35:23;4.07;;;2.63;;
41923;SDS011;27613;48.116;11.656;2023-01-19T15:37:50;5.35;;;2.35;;
41923;SDS011;27613;48.116;11.656;2023-01-19T15:40:16;3.33;;;2.08;;
41923;SDS011;27613;48.116;11.656;2023-01-19T15:42:43;3.75;;;2.30;;